createdAt,value
2023-03-06T00:00:38.439Z,2.45
2023-03-06T00:01:25.277Z,2.43
2023-03-06T00:02:12.280Z,2.33
2023-03-06T00:02:59.331Z,2.34
2023-03-06T00:03:46.364Z,2.32
2023-03-06T00:04:33.314Z,2.31
2023-03-06T00:05:20.363Z,2.22
2023-03-06T00:06:07.717Z,2.19
2023-03-06T00:06:54.992Z,2.12
2023-03-06T00:07:42.612Z,2.18
2023-03-06T00:08:29.965Z,2.12
2023-03-06T00:09:16.940Z,2.11
2023-03-06T00:10:04.346Z,2.09
2023-03-06T00:10:52.379Z,2.05
2023-03-06T00:11:39.332Z,2.16
2023-03-06T00:12:27.921Z,2.07
2023-03-06T00:13:16.645Z,2.16
2023-03-06T00:14:03.701Z,1.97
2023-03-06T00:14:50.668Z,2.05
2023-03-06T00:15:37.679Z,2.15
2023-03-06T00:16:25.175Z,2.23
2023-03-06T00:17:12.272Z,2.24
2023-03-06T00:17:59.841Z,2.11
2023-03-06T00:18:48.030Z,2.00
2023-03-06T00:19:35.120Z,1.88
2023-03-06T00:20:23.165Z,1.73
2023-03-06T00:21:10.271Z,1.78
2023-03-06T00:21:57.572Z,1.68
2023-03-06T00:22:45.849Z,1.59
2023-03-06T00:23:32.945Z,1.63
2023-03-06T00:24:20.127Z,1.70
2023-03-06T00:25:08.580Z,1.69
2023-03-06T00:25:55.620Z,1.79
2023-03-06T00:26:43.461Z,1.66
2023-03-06T00:27:31.534Z,1.54
2023-03-06T00:28:18.560Z,1.61
2023-03-06T00:29:05.807Z,1.79
2023-03-06T00:29:56.892Z,1.69
2023-03-06T00:30:44.801Z,1.75
2023-03-06T00:31:31.849Z,1.83
2023-03-06T00:32:18.871Z,1.78
2023-03-06T00:33:06.049Z,1.77
2023-03-06T00:33:53.098Z,1.81
2023-03-06T00:34:40.165Z,1.79
2023-03-06T00:35:27.219Z,1.80
2023-03-06T00:36:14.241Z,1.77
2023-03-06T00:37:01.297Z,1.80
2023-03-06T00:37:48.565Z,1.85
2023-03-06T00:38:37.440Z,1.88
2023-03-06T00:39:24.667Z,1.85
2023-03-06T00:40:14.955Z,2.01
2023-03-06T00:41:12.494Z,2.09
2023-03-06T00:41:59.516Z,2.12
2023-03-06T00:42:46.969Z,2.01
2023-03-06T00:43:33.966Z,2.06
2023-03-06T00:44:21.046Z,2.08
2023-03-06T00:45:09.254Z,2.15
2023-03-06T00:45:56.366Z,2.05
2023-03-06T00:46:43.604Z,1.91
2023-03-06T00:47:30.594Z,1.84
2023-03-06T00:48:17.597Z,1.84
2023-03-06T00:49:04.614Z,1.83
2023-03-06T00:49:51.709Z,1.79
2023-03-06T00:50:38.710Z,1.83
2023-03-06T00:51:25.804Z,1.87
2023-03-06T00:52:13.677Z,1.87
2023-03-06T00:53:00.698Z,1.90
2023-03-06T00:53:48.318Z,1.98
2023-03-06T00:54:35.334Z,1.89
2023-03-06T00:55:22.410Z,1.94
2023-03-06T00:56:09.491Z,1.95
2023-03-06T00:56:56.644Z,1.92
2023-03-06T00:57:43.703Z,1.90
2023-03-06T00:58:30.642Z,1.94
2023-03-06T00:59:17.651Z,2.04
2023-03-06T01:00:06.128Z,1.86
2023-03-06T01:00:53.677Z,1.90
2023-03-06T01:01:40.794Z,1.93
2023-03-06T01:02:28.041Z,1.82
2023-03-06T01:03:15.108Z,1.83
2023-03-06T01:04:02.197Z,1.87
2023-03-06T01:04:49.207Z,1.90
2023-03-06T01:05:37.868Z,1.90
2023-03-06T01:06:25.040Z,1.95
2023-03-06T01:07:12.148Z,1.94
2023-03-06T01:07:59.196Z,1.91
2023-03-06T01:08:46.426Z,1.94
2023-03-06T01:09:33.356Z,1.97
2023-03-06T01:10:20.738Z,1.87
2023-03-06T01:11:07.673Z,1.81
2023-03-06T01:11:54.804Z,1.81
2023-03-06T01:12:41.846Z,1.72
2023-03-06T01:13:29.052Z,1.75
2023-03-06T01:14:16.072Z,1.75
2023-03-06T01:15:03.569Z,1.77
2023-03-06T01:15:50.624Z,1.81
2023-03-06T01:16:37.611Z,1.78
2023-03-06T01:17:24.655Z,1.93
2023-03-06T01:18:11.729Z,2.00
2023-03-06T01:18:58.983Z,1.91
2023-03-06T01:19:46.094Z,1.92
2023-03-06T01:20:33.111Z,2.07
2023-03-06T01:21:20.341Z,2.16
2023-03-06T01:22:07.366Z,1.93
2023-03-06T01:22:55.807Z,2.04
2023-03-06T01:23:43.256Z,2.15
2023-03-06T01:24:30.198Z,2.14
2023-03-06T01:25:17.398Z,2.15
2023-03-06T01:26:04.791Z,2.10
2023-03-06T01:26:52.072Z,2.10
2023-03-06T01:27:39.091Z,2.20
2023-03-06T01:28:26.148Z,2.05
2023-03-06T01:29:13.149Z,2.03
2023-03-06T01:30:00.317Z,2.11
2023-03-06T01:30:47.329Z,2.16
2023-03-06T01:31:34.419Z,2.24
2023-03-06T01:32:22.265Z,2.16
2023-03-06T01:33:09.380Z,2.15
2023-03-06T01:33:56.319Z,1.98
2023-03-06T01:34:43.357Z,2.01
2023-03-06T01:35:30.353Z,1.96
2023-03-06T01:36:17.433Z,2.06
2023-03-06T01:37:04.412Z,1.96
2023-03-06T01:37:51.453Z,2.01
2023-03-06T01:38:38.887Z,2.04
2023-03-06T01:39:25.918Z,2.00
2023-03-06T01:40:13.614Z,2.00
2023-03-06T01:41:01.681Z,2.01
2023-03-06T01:41:48.691Z,1.86
2023-03-06T01:42:35.748Z,1.94
2023-03-06T01:43:28.167Z,1.99
2023-03-06T01:44:15.459Z,1.95
2023-03-06T01:45:13.201Z,1.89
2023-03-06T01:46:39.074Z,2.01
2023-03-06T01:47:26.205Z,2.11
2023-03-06T01:48:13.211Z,2.18
2023-03-06T01:49:13.680Z,2.18
2023-03-06T01:50:04.058Z,2.22
2023-03-06T01:50:51.765Z,2.17
2023-03-06T01:51:51.798Z,2.14
2023-03-06T01:52:58.897Z,2.26
2023-03-06T01:53:46.643Z,2.02
2023-03-06T01:54:37.934Z,2.16
2023-03-06T01:55:33.901Z,2.20
2023-03-06T01:56:21.276Z,2.35
2023-03-06T01:57:15.484Z,2.38
2023-03-06T01:58:06.169Z,2.35
2023-03-06T01:58:52.884Z,2.20
2023-03-06T01:59:41.177Z,2.33
2023-03-06T02:00:29.252Z,2.43
2023-03-06T02:01:16.629Z,2.43
2023-03-06T02:02:04.601Z,2.36
2023-03-06T02:02:57.679Z,2.29
2023-03-06T02:03:47.548Z,2.22
2023-03-06T02:04:35.857Z,2.34
2023-03-06T02:05:22.972Z,2.44
2023-03-06T02:06:10.018Z,2.45
2023-03-06T02:07:02.274Z,2.38
2023-03-06T02:07:50.876Z,2.38
2023-03-06T02:08:37.829Z,2.29
2023-03-06T02:09:26.322Z,2.15
2023-03-06T02:10:13.606Z,2.17
2023-03-06T02:11:17.325Z,2.24
2023-03-06T02:12:12.243Z,2.29
2023-03-06T02:12:59.353Z,2.31
2023-03-06T02:13:46.974Z,2.35
2023-03-06T02:14:33.998Z,2.34
2023-03-06T02:15:23.039Z,2.30
2023-03-06T02:16:11.120Z,2.45
2023-03-06T02:16:58.235Z,2.52
2023-03-06T02:17:46.622Z,2.57
2023-03-06T02:18:34.680Z,2.49
2023-03-06T02:19:33.592Z,2.57
2023-03-06T02:20:32.101Z,2.38
2023-03-06T02:21:24.135Z,2.50
2023-03-06T02:22:11.255Z,2.57
2023-03-06T02:23:11.772Z,2.59
2023-03-06T02:24:17.369Z,2.59
2023-03-06T02:25:30.348Z,2.60
2023-03-06T02:26:17.543Z,2.70
2023-03-06T02:27:06.001Z,2.66
2023-03-06T02:27:53.003Z,2.49
2023-03-06T02:28:40.312Z,2.37
2023-03-06T02:29:29.198Z,2.43
2023-03-06T02:30:17.606Z,2.54
2023-03-06T02:31:04.702Z,2.60
2023-03-06T02:31:51.823Z,2.44
2023-03-06T02:32:38.851Z,2.42
2023-03-06T02:33:28.900Z,2.57
2023-03-06T02:34:15.772Z,2.56
2023-03-06T02:35:02.772Z,2.53
2023-03-06T02:36:07.280Z,2.59
2023-03-06T02:37:09.043Z,2.47
2023-03-06T02:37:58.116Z,2.51
2023-03-06T02:38:49.372Z,2.45
2023-03-06T02:39:41.121Z,2.46
2023-03-06T02:40:28.435Z,2.28
2023-03-06T02:41:16.252Z,2.42
2023-03-06T02:42:03.282Z,2.36
2023-03-06T02:42:56.730Z,2.35
2023-03-06T02:43:45.986Z,2.36
2023-03-06T02:44:34.239Z,2.43
2023-03-06T02:45:26.295Z,2.55
2023-03-06T02:46:13.483Z,2.62
2023-03-06T02:47:00.734Z,2.54
2023-03-06T02:47:47.727Z,2.44
2023-03-06T02:48:34.960Z,2.51
2023-03-06T02:49:21.864Z,2.27
2023-03-06T02:50:10.284Z,2.27
2023-03-06T02:50:57.469Z,2.16
2023-03-06T02:51:44.877Z,2.24
2023-03-06T02:52:31.842Z,2.33
2023-03-06T02:53:20.723Z,2.26
2023-03-06T02:54:07.730Z,2.20
2023-03-06T02:54:54.715Z,2.06
2023-03-06T02:55:41.790Z,2.16
2023-03-06T02:56:28.714Z,2.30
2023-03-06T02:57:15.797Z,2.35
2023-03-06T02:58:03.830Z,2.49
2023-03-06T02:58:50.837Z,2.45
2023-03-06T02:59:37.886Z,2.51
2023-03-06T03:00:25.008Z,2.35
2023-03-06T03:01:12.077Z,2.24
2023-03-06T03:01:59.275Z,2.23
2023-03-06T03:02:46.203Z,2.16
2023-03-06T03:03:33.669Z,2.25
2023-03-06T03:04:20.754Z,2.25
2023-03-06T03:05:08.170Z,2.13
2023-03-06T03:05:55.187Z,2.25
2023-03-06T03:06:42.177Z,2.39
2023-03-06T03:07:29.120Z,2.44
2023-03-06T03:08:16.375Z,2.33
2023-03-06T03:09:03.511Z,2.24
2023-03-06T03:09:50.590Z,2.27
2023-03-06T03:10:37.592Z,2.17
2023-03-06T03:11:24.646Z,2.19
2023-03-06T03:12:11.591Z,2.30
2023-03-06T03:12:58.951Z,2.42
2023-03-06T03:13:45.910Z,2.55
2023-03-06T03:14:33.010Z,2.49
2023-03-06T03:15:20.001Z,2.46
2023-03-06T03:16:09.378Z,2.50
2023-03-06T03:16:56.426Z,2.54
2023-03-06T03:17:43.832Z,2.36
2023-03-06T03:18:30.920Z,2.40
2023-03-06T03:19:17.971Z,2.39
2023-03-06T03:20:06.997Z,2.48
2023-03-06T03:20:54.424Z,2.41
2023-03-06T03:21:41.815Z,2.23
2023-03-06T03:22:28.885Z,2.40
2023-03-06T03:23:15.835Z,2.40
2023-03-06T03:24:02.802Z,2.20
2023-03-06T03:24:50.165Z,2.23
2023-03-06T03:25:37.276Z,2.28
2023-03-06T03:26:24.238Z,2.18
2023-03-06T03:27:11.615Z,2.29
2023-03-06T03:27:58.634Z,2.42
2023-03-06T03:28:45.841Z,2.48
2023-03-06T03:29:33.062Z,2.45
2023-03-06T03:30:20.238Z,2.46
2023-03-06T03:31:09.035Z,2.48
2023-03-06T03:31:56.188Z,2.57
2023-03-06T03:32:43.449Z,2.57
2023-03-06T03:33:30.555Z,2.56
2023-03-06T03:34:19.167Z,2.41
2023-03-06T03:35:08.021Z,2.46
2023-03-06T03:35:59.203Z,2.41
2023-03-06T03:36:47.041Z,2.44
2023-03-06T03:37:35.124Z,2.45
2023-03-06T03:38:22.174Z,2.34
2023-03-06T03:39:09.299Z,2.40
2023-03-06T03:39:57.847Z,2.44
2023-03-06T03:40:44.905Z,2.54
2023-03-06T03:41:34.360Z,2.59
2023-03-06T03:42:21.391Z,2.53
2023-03-06T03:43:08.286Z,2.40
2023-03-06T03:43:55.342Z,2.42
2023-03-06T03:44:42.368Z,2.37
2023-03-06T03:45:29.321Z,2.41
2023-03-06T03:46:16.301Z,2.51
2023-03-06T03:47:03.339Z,2.53
2023-03-06T03:47:50.398Z,2.53
2023-03-06T03:48:37.354Z,2.54
2023-03-06T03:49:24.421Z,2.67
2023-03-06T03:50:12.047Z,2.60
2023-03-06T03:51:08.929Z,2.47
2023-03-06T03:51:55.980Z,2.33
2023-03-06T03:52:42.990Z,2.46
2023-03-06T03:53:30.091Z,2.55
2023-03-06T03:54:17.308Z,2.61
2023-03-06T03:55:05.385Z,2.41
2023-03-06T03:55:52.477Z,2.30
2023-03-06T03:56:40.950Z,2.23
2023-03-06T03:57:27.925Z,2.34
2023-03-06T03:58:14.795Z,2.38
2023-03-06T03:59:01.848Z,2.29
2023-03-06T03:59:48.936Z,2.36
2023-03-06T04:00:35.876Z,2.36
2023-03-06T04:01:22.978Z,2.27
2023-03-06T04:02:09.943Z,2.35
2023-03-06T04:02:57.084Z,2.50
2023-03-06T04:03:44.157Z,2.59
2023-03-06T04:04:31.318Z,2.61
2023-03-06T04:05:18.720Z,2.56
2023-03-06T04:06:06.002Z,2.41
2023-03-06T04:06:52.966Z,2.28
2023-03-06T04:07:39.917Z,2.28
2023-03-06T04:08:27.577Z,2.43
2023-03-06T04:09:14.634Z,2.40
2023-03-06T04:10:01.688Z,2.40
2023-03-06T04:10:48.681Z,2.46
2023-03-06T04:11:35.732Z,2.23
2023-03-06T04:12:22.737Z,2.22
2023-03-06T04:13:10.260Z,2.35
2023-03-06T04:13:57.625Z,2.40
2023-03-06T04:14:44.726Z,2.20
2023-03-06T04:15:32.437Z,2.07
2023-03-06T04:16:19.510Z,2.08
2023-03-06T04:17:06.504Z,2.07
2023-03-06T04:17:53.520Z,2.15
2023-03-06T04:18:40.605Z,2.34
2023-03-06T04:19:28.056Z,2.33
2023-03-06T04:20:15.193Z,2.23
2023-03-06T04:21:02.308Z,2.05
2023-03-06T04:21:49.414Z,2.13
2023-03-06T04:22:36.394Z,2.16
2023-03-06T04:23:24.564Z,2.26
2023-03-06T04:24:11.586Z,2.10
2023-03-06T04:24:58.505Z,2.01
2023-03-06T04:25:46.234Z,2.17
2023-03-06T04:26:33.365Z,2.32
2023-03-06T04:27:20.360Z,2.37
2023-03-06T04:28:07.699Z,2.34
2023-03-06T04:28:56.384Z,2.42
2023-03-06T04:29:43.569Z,2.40
2023-03-06T04:30:30.727Z,2.37
2023-03-06T04:31:17.748Z,2.41
2023-03-06T04:32:05.099Z,2.40
2023-03-06T04:32:52.148Z,2.49
2023-03-06T04:33:39.456Z,2.44
2023-03-06T04:34:26.489Z,2.33
2023-03-06T04:35:13.519Z,2.15
2023-03-06T04:36:00.455Z,1.99
2023-03-06T04:36:47.676Z,1.86
2023-03-06T04:37:34.788Z,1.89
2023-03-06T04:38:21.822Z,2.01
2023-03-06T04:39:08.866Z,2.11
2023-03-06T04:39:55.827Z,2.20
2023-03-06T04:40:44.814Z,2.30
2023-03-06T04:41:32.142Z,2.35
2023-03-06T04:42:19.438Z,2.35
2023-03-06T04:43:06.751Z,2.43
2023-03-06T04:43:54.004Z,2.44
2023-03-06T04:44:40.971Z,2.39
2023-03-06T04:45:29.155Z,2.30
2023-03-06T04:46:16.659Z,2.09
2023-03-06T04:47:03.679Z,2.16
2023-03-06T04:47:50.723Z,2.11
2023-03-06T04:48:37.823Z,2.21
2023-03-06T04:49:24.799Z,2.28
2023-03-06T04:50:12.538Z,2.38
2023-03-06T04:50:59.494Z,2.25
2023-03-06T04:51:46.478Z,2.22
2023-03-06T04:52:33.917Z,2.13
2023-03-06T04:53:22.017Z,2.19
2023-03-06T04:54:09.025Z,2.24
2023-03-06T04:54:56.168Z,2.12
2023-03-06T04:55:43.222Z,2.27
2023-03-06T04:56:30.890Z,2.30
2023-03-06T04:57:18.005Z,2.37
2023-03-06T04:58:05.040Z,2.28
2023-03-06T04:58:52.103Z,2.27
2023-03-06T04:59:39.330Z,2.30
2023-03-06T05:00:36.478Z,2.16
2023-03-06T05:01:23.512Z,2.15
2023-03-06T05:02:10.547Z,2.27
2023-03-06T05:03:01.803Z,2.23
2023-03-06T05:03:50.021Z,2.04
2023-03-06T05:04:37.068Z,1.88
2023-03-06T05:05:24.148Z,1.80
2023-03-06T05:06:11.197Z,1.97
2023-03-06T05:06:58.189Z,2.15
2023-03-06T05:07:45.493Z,2.24
2023-03-06T05:08:32.521Z,2.30
2023-03-06T05:09:19.459Z,2.36
2023-03-06T05:10:07.268Z,2.25
2023-03-06T05:10:57.063Z,2.21
2023-03-06T05:11:43.992Z,2.23
2023-03-06T05:12:31.195Z,2.22
2023-03-06T05:13:18.243Z,2.25
2023-03-06T05:14:05.256Z,2.20
2023-03-06T05:14:52.434Z,2.25
2023-03-06T05:15:42.356Z,2.23
2023-03-06T05:16:29.449Z,2.28
2023-03-06T05:17:16.419Z,2.29
2023-03-06T05:18:03.698Z,2.33
2023-03-06T05:18:50.881Z,2.27
2023-03-06T05:19:38.006Z,2.27
2023-03-06T05:20:25.184Z,2.31
2023-03-06T05:21:12.393Z,2.30
2023-03-06T05:21:59.485Z,2.28
2023-03-06T05:22:46.501Z,1.94
2023-03-06T05:23:36.998Z,1.93
2023-03-06T05:24:24.055Z,1.83
2023-03-06T05:25:11.500Z,1.99
2023-03-06T05:25:58.732Z,2.08
2023-03-06T05:26:45.698Z,2.20
2023-03-06T05:27:32.822Z,2.20
2023-03-06T05:28:19.927Z,2.30
2023-03-06T05:29:07.242Z,2.21
2023-03-06T05:29:54.879Z,2.30
2023-03-06T05:30:41.844Z,2.35
2023-03-06T05:31:29.130Z,2.36
2023-03-06T05:32:17.250Z,2.28
2023-03-06T05:33:04.458Z,2.33
2023-03-06T05:33:51.830Z,2.25
2023-03-06T05:34:40.043Z,1.89
2023-03-06T05:35:27.227Z,2.01
2023-03-06T05:36:14.685Z,2.00
2023-03-06T05:37:02.097Z,2.01
2023-03-06T05:37:49.145Z,2.03
2023-03-06T05:38:36.333Z,2.04
2023-03-06T05:39:23.428Z,2.09
2023-03-06T05:40:11.522Z,2.14
2023-03-06T05:40:58.559Z,2.29
2023-03-06T05:41:45.603Z,2.04
2023-03-06T05:42:32.569Z,1.91
2023-03-06T05:43:20.020Z,1.90
2023-03-06T05:44:07.287Z,1.90
2023-03-06T05:44:54.324Z,1.80
2023-03-06T05:45:41.423Z,1.99
2023-03-06T05:46:28.424Z,2.08
2023-03-06T05:47:15.436Z,2.08
2023-03-06T05:48:02.689Z,2.08
2023-03-06T05:48:50.634Z,2.13
2023-03-06T05:49:38.085Z,2.23
2023-03-06T05:50:25.216Z,2.28
2023-03-06T05:51:12.333Z,2.33
2023-03-06T05:51:59.412Z,2.43
2023-03-06T05:52:46.424Z,2.45
2023-03-06T05:53:33.714Z,2.52
2023-03-06T05:54:21.535Z,2.48
2023-03-06T05:55:10.574Z,2.45
2023-03-06T05:55:59.160Z,2.49
2023-03-06T05:56:46.186Z,2.47
2023-03-06T05:57:33.251Z,2.43
2023-03-06T05:58:20.318Z,2.44
2023-03-06T05:59:07.367Z,2.44
2023-03-06T05:59:54.496Z,2.45
2023-03-06T06:00:41.672Z,2.38
2023-03-06T06:01:28.789Z,2.31
2023-03-06T06:02:16.556Z,2.33
2023-03-06T06:03:05.033Z,2.37
2023-03-06T06:03:52.419Z,2.40
2023-03-06T06:04:39.483Z,2.30
2023-03-06T06:05:26.473Z,2.41
2023-03-06T06:06:14.849Z,2.45
2023-03-06T06:07:01.930Z,2.35
2023-03-06T06:07:48.989Z,2.41
2023-03-06T06:08:36.010Z,2.45
2023-03-06T06:09:24.242Z,2.46
2023-03-06T06:10:12.326Z,2.49
2023-03-06T06:10:59.354Z,2.44
2023-03-06T06:11:46.488Z,2.44
2023-03-06T06:12:33.784Z,2.52
2023-03-06T06:13:20.740Z,2.55
2023-03-06T06:14:07.696Z,2.55
2023-03-06T06:14:54.818Z,2.61
2023-03-06T06:15:41.940Z,2.56
2023-03-06T06:16:28.955Z,2.39
2023-03-06T06:17:16.969Z,2.36
2023-03-06T06:18:04.161Z,2.28
2023-03-06T06:18:51.147Z,2.34
2023-03-06T06:19:38.456Z,2.18
2023-03-06T06:21:14.799Z,2.34
2023-03-06T06:22:04.984Z,2.32
2023-03-06T06:22:51.994Z,2.34
2023-03-06T06:23:38.913Z,2.32
2023-03-06T06:24:27.289Z,2.30
2023-03-06T06:25:14.361Z,2.39
2023-03-06T06:26:05.684Z,2.49
2023-03-06T06:26:54.954Z,2.51
2023-03-06T06:27:42.074Z,2.55
2023-03-06T06:28:29.888Z,2.54
2023-03-06T06:29:17.042Z,2.57
2023-03-06T06:30:05.711Z,2.64
2023-03-06T06:30:53.127Z,2.63
2023-03-06T06:31:40.553Z,2.64
2023-03-06T06:32:27.741Z,2.76
2023-03-06T06:33:14.722Z,2.83
2023-03-06T06:34:01.674Z,2.96
2023-03-06T06:34:48.659Z,2.92
2023-03-06T06:35:37.427Z,2.81
2023-03-06T06:36:24.499Z,2.79
2023-03-06T06:37:11.960Z,2.89
2023-03-06T06:37:59.073Z,2.85
2023-03-06T06:38:46.760Z,2.90
2023-03-06T06:39:34.654Z,2.85
2023-03-06T06:40:24.521Z,2.91
2023-03-06T06:41:38.897Z,2.97
2023-03-06T06:42:31.990Z,3.00
2023-03-06T06:43:22.204Z,3.02
2023-03-06T06:44:14.666Z,2.85
2023-03-06T06:45:01.673Z,2.91
2023-03-06T06:45:49.623Z,2.89
2023-03-06T06:47:20.929Z,2.88
2023-03-06T06:47:44.805Z,2.89
2023-03-06T06:48:31.943Z,2.97
2023-03-06T06:49:19.042Z,2.92
2023-03-06T06:50:06.693Z,2.97
2023-03-06T06:51:00.332Z,3.08
2023-03-06T06:51:47.511Z,2.97
2023-03-06T06:52:34.703Z,2.97
2023-03-06T06:53:21.706Z,2.93
2023-03-06T06:54:08.981Z,2.99
2023-03-06T06:54:56.058Z,3.05
2023-03-06T06:55:43.308Z,3.12
2023-03-06T06:56:30.429Z,3.15
2023-03-06T06:57:17.673Z,3.18
2023-03-06T06:58:04.807Z,3.19
2023-03-06T06:59:01.352Z,3.20
2023-03-06T06:59:57.360Z,3.13
2023-03-06T07:00:44.478Z,3.16
2023-03-06T07:01:31.567Z,3.13
2023-03-06T07:02:18.791Z,3.25
2023-03-06T07:03:05.834Z,3.30
2023-03-06T07:03:53.056Z,3.39
2023-03-06T07:04:52.214Z,3.42
2023-03-06T07:05:43.523Z,3.47
2023-03-06T07:06:30.758Z,3.46
2023-03-06T07:07:17.844Z,3.23
2023-03-06T07:08:04.876Z,3.40
2023-03-06T07:08:52.168Z,3.29
2023-03-06T07:09:40.395Z,3.33
2023-03-06T07:10:27.356Z,3.43
2023-03-06T07:11:17.754Z,3.55
2023-03-06T07:12:04.889Z,3.54
2023-03-06T07:12:51.767Z,3.50
2023-03-06T07:13:38.853Z,3.51
2023-03-06T07:14:25.916Z,3.58
2023-03-06T07:15:15.274Z,3.62
2023-03-06T07:16:02.512Z,3.61
2023-03-06T07:16:49.495Z,3.60
2023-03-06T07:17:36.502Z,3.53
2023-03-06T07:18:23.393Z,3.44
2023-03-06T07:19:10.335Z,3.36
2023-03-06T07:19:57.373Z,3.36
2023-03-06T07:20:44.263Z,3.37
2023-03-06T07:21:31.250Z,3.53
2023-03-06T07:22:18.148Z,3.40
2023-03-06T07:23:08.614Z,3.48
2023-03-06T07:23:57.697Z,3.55
2023-03-06T07:24:44.647Z,3.58
2023-03-06T07:25:31.586Z,3.52
2023-03-06T07:26:18.482Z,3.47
2023-03-06T07:27:05.437Z,3.44
2023-03-06T07:27:54.591Z,3.50
2023-03-06T07:28:52.438Z,3.57
2023-03-06T07:29:39.698Z,3.47
2023-03-06T07:30:26.558Z,3.71
2023-03-06T07:31:13.528Z,3.78
2023-03-06T07:32:00.643Z,3.61
2023-03-06T07:32:47.650Z,3.70
2023-03-06T07:33:34.570Z,3.80
2023-03-06T07:34:21.493Z,3.96
2023-03-06T07:35:19.817Z,3.95
2023-03-06T07:36:12.744Z,3.90
2023-03-06T07:36:59.795Z,3.68
2023-03-06T07:37:46.779Z,3.78
2023-03-06T07:38:33.872Z,3.88
2023-03-06T07:39:20.809Z,3.84
2023-03-06T07:40:09.718Z,3.89
2023-03-06T07:40:56.551Z,4.01
2023-03-06T07:41:43.443Z,3.59
2023-03-06T07:42:30.318Z,3.73
2023-03-06T07:43:19.610Z,3.93
2023-03-06T07:44:07.654Z,3.96
2023-03-06T07:44:54.559Z,4.01
2023-03-06T07:45:43.478Z,4.12
2023-03-06T07:46:30.491Z,4.16
2023-03-06T07:47:17.396Z,4.24
2023-03-06T07:48:05.622Z,4.17
2023-03-06T07:48:53.412Z,4.21
2023-03-06T07:49:40.346Z,4.24
2023-03-06T07:50:27.341Z,4.33
2023-03-06T07:51:16.724Z,4.38
2023-03-06T07:52:03.799Z,4.21
2023-03-06T07:52:51.450Z,4.23
2023-03-06T07:53:38.400Z,4.23
2023-03-06T07:54:25.517Z,4.31
2023-03-06T07:55:13.042Z,4.22
2023-03-06T07:56:00.134Z,4.14
2023-03-06T07:56:50.704Z,3.96
2023-03-06T07:57:38.692Z,4.06
2023-03-06T07:58:26.442Z,4.05
2023-03-06T07:59:13.330Z,4.22
2023-03-06T08:00:00.259Z,4.37
2023-03-06T08:00:47.416Z,4.40
2023-03-06T08:01:34.363Z,4.39
2023-03-06T08:02:23.362Z,4.44
2023-03-06T08:03:12.046Z,4.30
2023-03-06T08:03:59.644Z,4.21
2023-03-06T08:04:53.681Z,4.09
2023-03-06T08:05:40.964Z,4.27
2023-03-06T08:06:28.598Z,4.40
2023-03-06T08:07:15.532Z,4.48
2023-03-06T08:08:02.442Z,4.60
2023-03-06T08:08:50.578Z,4.47
2023-03-06T08:09:37.444Z,4.22
2023-03-06T08:10:24.315Z,4.09
2023-03-06T08:11:12.890Z,3.95
2023-03-06T08:11:59.784Z,4.04
2023-03-06T08:12:46.724Z,4.00
2023-03-06T08:13:35.756Z,3.87
2023-03-06T08:14:22.796Z,4.02
2023-03-06T08:15:11.613Z,4.04
2023-03-06T08:16:00.001Z,4.12
2023-03-06T08:16:47.038Z,4.27
2023-03-06T08:17:33.926Z,4.36
2023-03-06T08:18:20.793Z,4.28
2023-03-06T08:19:07.898Z,4.43
2023-03-06T08:19:54.783Z,4.43
2023-03-06T08:20:41.670Z,4.43
2023-03-06T08:21:29.355Z,4.24
2023-03-06T08:22:16.257Z,4.01
2023-03-06T08:23:03.093Z,3.80
2023-03-06T08:23:50.818Z,3.69
2023-03-06T08:24:38.056Z,3.93
2023-03-06T08:25:25.857Z,3.94
2023-03-06T08:26:15.743Z,3.95
2023-03-06T08:27:02.754Z,3.98
2023-03-06T08:27:49.774Z,4.04
2023-03-06T08:28:36.653Z,4.16
2023-03-06T08:29:23.516Z,4.23
2023-03-06T08:30:11.062Z,4.15
2023-03-06T08:30:58.681Z,4.00
2023-03-06T08:31:46.612Z,4.04
2023-03-06T08:32:38.762Z,4.00
2023-03-06T08:33:25.831Z,4.11
2023-03-06T08:34:15.404Z,4.12
2023-03-06T08:35:04.086Z,4.04
2023-03-06T08:35:51.442Z,4.02
2023-03-06T08:36:38.805Z,4.00
2023-03-06T08:37:25.816Z,3.76
2023-03-06T08:38:12.701Z,3.68
2023-03-06T08:38:59.977Z,3.64
2023-03-06T08:39:46.897Z,3.75
2023-03-06T08:40:34.020Z,3.92
2023-03-06T08:41:21.615Z,4.04
2023-03-06T08:42:10.476Z,4.06
2023-03-06T08:42:57.897Z,4.13
2023-03-06T08:43:44.912Z,3.94
2023-03-06T08:44:31.842Z,3.89
2023-03-06T08:45:18.723Z,4.01
2023-03-06T08:46:05.751Z,4.08
2023-03-06T08:46:54.827Z,4.00
2023-03-06T08:47:41.733Z,4.02
2023-03-06T08:48:28.638Z,3.97
2023-03-06T08:49:15.608Z,4.04
2023-03-06T08:50:02.555Z,4.08
2023-03-06T08:50:49.654Z,4.08
2023-03-06T08:51:36.633Z,4.23
2023-03-06T08:52:23.509Z,4.33
2023-03-06T08:53:10.881Z,4.02
2023-03-06T08:53:58.290Z,4.05
2023-03-06T08:54:45.206Z,4.10
2023-03-06T08:55:32.050Z,4.03
2023-03-06T08:56:20.273Z,3.85
2023-03-06T08:57:07.206Z,3.92
2023-03-06T08:57:54.572Z,4.04
2023-03-06T08:58:41.409Z,4.17
2023-03-06T08:59:28.281Z,4.22
2023-03-06T09:00:15.605Z,4.36
2023-03-06T09:01:05.532Z,4.43
2023-03-06T09:01:52.601Z,4.30
2023-03-06T09:02:40.035Z,4.37
2023-03-06T09:03:27.082Z,4.46
2023-03-06T09:04:14.237Z,4.54
2023-03-06T09:05:01.635Z,4.59
2023-03-06T09:05:48.757Z,4.59
2023-03-06T09:06:38.760Z,4.48
2023-03-06T09:07:25.806Z,4.25
2023-03-06T09:08:12.761Z,4.29
2023-03-06T09:09:00.017Z,4.25
2023-03-06T09:09:46.974Z,4.36
2023-03-06T09:10:34.411Z,4.25
2023-03-06T09:11:23.029Z,4.27
2023-03-06T09:12:09.912Z,4.29
2023-03-06T09:12:56.935Z,4.36
2023-03-06T09:13:44.198Z,4.53
2023-03-06T09:14:32.995Z,4.45
2023-03-06T09:15:21.159Z,4.48
2023-03-06T09:16:09.799Z,4.46
2023-03-06T09:16:56.754Z,4.70
2023-03-06T09:17:43.790Z,4.78
2023-03-06T09:18:30.850Z,4.93
2023-03-06T09:19:18.034Z,5.02
2023-03-06T09:20:10.560Z,5.06
2023-03-06T09:20:57.600Z,4.98
2023-03-06T09:21:44.610Z,4.95
2023-03-06T09:22:32.321Z,4.83
2023-03-06T09:23:19.251Z,4.69
2023-03-06T09:24:06.421Z,4.75
2023-03-06T09:24:54.286Z,4.74
2023-03-06T09:25:41.197Z,4.79
2023-03-06T09:26:43.331Z,4.95
2023-03-06T09:27:31.945Z,5.02
2023-03-06T09:28:18.828Z,5.20
2023-03-06T09:29:05.654Z,5.30
2023-03-06T09:29:52.470Z,5.39
2023-03-06T09:30:41.235Z,5.37
2023-03-06T09:31:28.597Z,5.44
2023-03-06T09:32:15.528Z,5.41
2023-03-06T09:33:02.468Z,5.44
2023-03-06T09:33:49.392Z,5.53
2023-03-06T09:34:36.294Z,5.68
2023-03-06T09:35:23.359Z,5.85
2023-03-06T09:36:17.314Z,6.06
2023-03-06T09:37:04.255Z,6.23
2023-03-06T09:37:51.154Z,6.09
2023-03-06T09:38:38.023Z,6.06
2023-03-06T09:39:26.387Z,5.68
2023-03-06T09:40:30.906Z,5.73
2023-03-06T09:41:31.147Z,5.96
2023-03-06T09:42:20.799Z,6.03
2023-03-06T09:43:13.834Z,6.12
2023-03-06T09:44:05.179Z,6.29
2023-03-06T09:44:55.513Z,6.38
2023-03-06T09:45:42.536Z,6.20
2023-03-06T09:46:40.617Z,6.08
2023-03-06T09:47:42.777Z,6.26
2023-03-06T09:48:44.538Z,6.44
2023-03-06T09:49:50.519Z,6.66
2023-03-06T09:50:40.173Z,6.73
2023-03-06T09:51:45.413Z,6.69
2023-03-06T09:52:35.317Z,6.60
2023-03-06T09:53:28.413Z,6.24
2023-03-06T09:54:16.256Z,6.14
2023-03-06T09:55:09.850Z,6.23
2023-03-06T09:56:06.525Z,6.19
2023-03-06T09:56:53.474Z,5.57
2023-03-06T09:57:55.329Z,5.23
2023-03-06T09:58:48.304Z,5.46
2023-03-06T09:59:35.303Z,5.35
2023-03-06T10:00:31.274Z,5.43
2023-03-06T10:01:28.226Z,5.18
2023-03-06T10:02:32.179Z,5.13
2023-03-06T10:03:34.312Z,5.01
2023-03-06T10:04:38.534Z,5.08
2023-03-06T10:05:35.958Z,5.24
2023-03-06T10:06:27.204Z,5.32
2023-03-06T10:07:19.316Z,4.90
2023-03-06T10:08:21.934Z,4.97
2023-03-06T10:09:19.307Z,5.19
2023-03-06T10:10:08.490Z,5.36
2023-03-06T10:11:02.172Z,5.65
2023-03-06T10:11:55.199Z,5.75
2023-03-06T10:12:48.510Z,5.97
2023-03-06T10:13:44.516Z,6.09
2023-03-06T10:14:57.111Z,6.27
2023-03-06T10:15:46.603Z,6.29
2023-03-06T10:16:33.682Z,5.80
2023-03-06T10:17:22.771Z,5.70
2023-03-06T10:18:11.297Z,5.76
2023-03-06T10:19:03.619Z,5.64
2023-03-06T10:19:50.998Z,5.50
2023-03-06T10:20:44.491Z,5.59
2023-03-06T10:21:45.871Z,5.66
2023-03-06T10:22:39.086Z,5.73
2023-03-06T10:23:54.889Z,5.16
2023-03-06T10:24:49.562Z,5.14
2023-03-06T10:26:02.240Z,5.49
2023-03-06T10:27:37.836Z,5.59
2023-03-06T10:28:35.430Z,5.62
2023-03-06T10:29:47.554Z,5.73
2023-03-06T10:31:18.058Z,5.52
2023-03-06T10:32:13.310Z,5.44
2023-03-06T10:33:08.098Z,5.59
2023-03-06T10:34:08.337Z,5.80
2023-03-06T10:34:57.855Z,5.95
2023-03-06T10:35:48.930Z,6.07
2023-03-06T10:36:37.910Z,6.15
2023-03-06T10:37:24.945Z,6.10
2023-03-06T10:38:25.201Z,5.90
2023-03-06T10:39:19.781Z,5.50
2023-03-06T10:40:18.845Z,5.55
2023-03-06T10:41:11.781Z,5.60
2023-03-06T10:41:58.821Z,5.69
2023-03-06T10:42:45.659Z,5.73
2023-03-06T10:43:36.020Z,5.87
2023-03-06T10:44:23.824Z,5.63
2023-03-06T10:45:16.414Z,5.89
2023-03-06T10:46:04.064Z,5.96
2023-03-06T10:46:52.851Z,5.77
2023-03-06T10:47:40.516Z,5.72
2023-03-06T10:48:29.592Z,5.89
2023-03-06T10:49:34.134Z,5.82
2023-03-06T10:50:24.905Z,5.84
2023-03-06T10:51:25.533Z,5.78